BLOCK ISLAND, RI - 154

GPS Positions

GPS Time
Latitude
Degrees
Longitude
Degrees
Gap
 
Distance
NM
Speed
Knots
Direction
Degrees
Apr 18, 03:51 40.96718° -71.12349° 30 min 0.01 0.00
333°
Apr 18, 03:21 40.96716° -71.12347° 30 min 0.01 0.00
Apr 18, 02:51 40.96715° -71.12347° 30 min 0.01 0.00
270°
Apr 18, 02:21 40.96715° -71.12345° 30 min 0.01 0.00
Apr 18, 01:51 40.96715° -71.12345° 30 min 0.01 0.00
236°
Apr 18, 01:21 40.96717° -71.12341° 30 min 0.01 0.00
270°
Apr 18, 00:51 40.96717° -71.12338° 30 min 0.01 0.00
Apr 18, 00:21 40.96716° -71.12338° 30 min 0.01 0.00
108°
Apr 17, 23:51 40.96717° -71.12343° 30 min 0.01 0.01
219°
Apr 17, 23:21 40.96721° -71.12338° 30 min 0.01 0.00
180°
Apr 17, 22:51 40.96725° -71.12338° 30 min 0.01 0.00
90°
Apr 17, 22:21 40.96725° -71.12343° 30 min 0.01 0.00
138°
Apr 17, 21:51 40.96727° -71.12345° 30 min 0.01 0.00
Apr 17, 21:21 40.96727° -71.12345° 30 min 0.01 0.00
153°
Apr 17, 20:51 40.96730° -71.12347° 30 min 0.01 0.00
124°
Apr 17, 20:21 40.96731° -71.12349° 30 min 0.01 0.00
180°
Apr 17, 19:51 40.96732° -71.12349° 30 min 0.01 0.01
90°
Apr 17, 19:21 40.96732° -71.12356° 30 min 0.01 0.00
Apr 17, 18:51 40.96731° -71.12356° 30 min 0.01 0.00
Apr 17, 18:21 40.96728° -71.12356° 30 min 0.01 0.00
37°
Apr 17, 17:51 40.96725° -71.12358° 30 min 0.01 0.00
180°
Apr 17, 17:21 40.96727° -71.12358° 30 min 0.01 0.00
45°
Apr 17, 16:51 40.96725° -71.12360° 30 min 0.01 0.00
Apr 17, 16:21 40.96722° -71.12360° 30 min 0.00 0.00
Apr 17, 15:51 40.96719° -71.12360° 30 min 0.00 0.00
Apr 17, 15:21 40.96718° -71.12360° 30 min 0.00 0.00
270°
Apr 17, 14:51 40.96718° -71.12358° 30 min 0.00 0.00
304°
Apr 17, 14:21 40.96717° -71.12356° 30 min 0.00 0.00
270°
Apr 17, 13:51 40.96717° -71.12351° 30 min 0.00 0.00
323°
Apr 17, 13:21 40.96715° -71.12349° 30 min 0.01 0.00
315°
Apr 17, 12:51 40.96714° -71.12347° 30 min 0.01 0.00
270°
Apr 17, 12:21 40.96714° -71.12345° 30 min 0.01 0.00
Apr 17, 11:51 40.96712° -71.12345° 30 min 0.01 0.00
Apr 17, 11:21 40.96712° -71.12345° 30 min 0.01 0.00
270°
Apr 17, 10:51 40.96712° -71.12343° 30 min 0.01 0.00
270°
Apr 17, 10:21 40.96712° -71.12341° 30 min 0.01 0.00
236°
Apr 17, 09:51 40.96713° -71.12338° 30 min 0.01 0.00
180°
Apr 17, 09:21 40.96714° -71.12338° 30 min 0.01 0.00
180°
Apr 17, 08:51 40.96717° -71.12338° 30 min 0.01 0.00
Apr 17, 08:21 40.96716° -71.12338° 30 min 0.01 0.01
256°
Apr 17, 07:51 40.96717° -71.12332° 30 min 0.01 0.01
180°
Apr 17, 07:21 40.96721° -71.12332° 30 min 0.01 0.00
90°
Apr 17, 06:51 40.96721° -71.12334° 30 min 0.01 0.00
304°
Apr 17, 06:21 40.96720° -71.12332° 30 min 0.01 0.00
90°
Apr 17, 05:51 40.96720° -71.12334° 30 min 0.01 0.00
56°
Apr 17, 05:21 40.96719° -71.12337° 30 min 0.01 0.00
Apr 17, 04:51 40.96718° -71.12337° 30 min 0.01 0.00
270°
Apr 17, 04:21 40.96718° -71.12334° 30 min 0.01 0.00
37°
Apr 17, 03:51 40.96716° -71.12337° 30 min 0.01 0.00
Apr 17, 03:21 40.96716° -71.12337° 30 min 0.01 0.00
90°
Apr 17, 02:51 40.96716° -71.12338° 30 min 0.01 0.00
315°
Apr 17, 02:21 40.96715° -71.12337° 30 min 0.01 0.00
304°
Apr 17, 01:51 40.96714° -71.12334° 30 min 0.01 0.00
207°
Apr 17, 01:21 40.96717° -71.12332° 30 min 0.01 0.00
304°
Apr 17, 00:51 40.96716° -71.12330° 30 min 0.01 0.00
180°
Apr 17, 00:21 40.96718° -71.12330° 30 min 0.01 0.00
56°
Apr 16, 23:51 40.96717° -71.12332° 30 min 0.01 0.00
270°
Apr 16, 23:21 40.96717° -71.12328° 30 min 0.02 0.00
180°
Apr 16, 22:51 40.96719° -71.12328° 30 min 0.02 0.00
90°
Apr 16, 22:21 40.96719° -71.12330° 30 min 0.01 0.00
Apr 16, 21:51 40.96719° -71.12330° 30 min 0.01 0.00
Apr 16, 21:21 40.96719° -71.12330° 30 min 0.01 0.00
Apr 16, 20:51 40.96719° -71.12330° 30 min 0.01 0.01
131°
Apr 16, 20:21 40.96724° -71.12337° 30 min 0.01 0.00
Apr 16, 19:51 40.96724° -71.12337° 30 min 0.01 0.00
90°
Apr 16, 19:21 40.96724° -71.12341° 30 min 0.01 0.00
Apr 16, 18:51 40.96724° -71.12341° 30 min 0.01 0.00
Apr 16, 18:21 40.96721° -71.12341° 30 min 0.01 0.00
124°
Apr 16, 17:51 40.96722° -71.12343° 30 min 0.01 0.00
90°
Apr 16, 17:21 40.96722° -71.12345° 30 min 0.01 0.00
37°
Apr 16, 16:51 40.96720° -71.12347° 30 min 0.01 0.00
90°
Apr 16, 16:21 40.96720° -71.12349° 30 min 0.01 0.00
Apr 16, 15:51 40.96719° -71.12349° 30 min 0.01 0.00
339°
Apr 16, 15:21 40.96716° -71.12347° 30 min 0.01 0.00
323°
Apr 16, 14:51 40.96714° -71.12345° 30 min 0.01 0.00
Apr 16, 14:21 40.96713° -71.12345° 30 min 0.01 0.00
180°
Apr 16, 13:51 40.96714° -71.12345° 30 min 0.01 0.00
294°
Apr 16, 13:21 40.96713° -71.12343° 30 min 0.01 0.00
Apr 16, 12:51 40.96713° -71.12343° 30 min 0.01 0.00
222°
Apr 16, 12:21 40.96715° -71.12341° 30 min 0.01 0.00
304°
Apr 16, 11:51 40.96714° -71.12338° 30 min 0.01 0.00
270°
Apr 16, 11:21 40.96714° -71.12334° 30 min 0.01 0.00
Apr 16, 10:51 40.96714° -71.12334° 30 min 0.01 0.00
153°
Apr 16, 10:21 40.96717° -71.12337° 30 min 0.01 0.00
Apr 16, 09:51 40.96716° -71.12337° 30 min 0.01 0.00
236°
Apr 16, 09:21 40.96717° -71.12334° 30 min 0.01 0.00
90°
Apr 16, 08:51 40.96717° -71.12337° 30 min 0.01 0.00
236°
Apr 16, 08:21 40.96718° -71.12334° 30 min 0.01 0.00
124°
Apr 16, 07:51 40.96720° -71.12338° 30 min 0.01 0.00
Apr 16, 07:21 40.96719° -71.12338° 30 min 0.01 0.00
Apr 16, 06:51 40.96718° -71.12338° 30 min 0.01 0.00
180°
Apr 16, 06:21 40.96720° -71.12338° 30 min 0.01 0.00
Apr 16, 05:51 40.96719° -71.12338° 30 min 0.01 0.00
Apr 16, 05:21 40.96719° -71.12338° 30 min 0.01 0.00
61°
Apr 16, 04:51 40.96717° -71.12343° 30 min 0.01 0.00
333°
Apr 16, 04:21 40.96714° -71.12341° 30 min 0.01 0.00
294°
Apr 16, 03:51 40.96713° -71.12338° 30 min 0.01 0.00
236°
Apr 16, 03:21 40.96715° -71.12334° 30 min 0.01 0.01
Apr 16, 02:51 40.96709° -71.12334° 30 min 0.01 0.00
217°
Apr 16, 02:21 40.96712° -71.12332° 30 min 0.01 0.00
222°
Apr 16, 01:51 40.96714° -71.12330° 30 min 0.01 0.00
270°
Apr 16, 01:21 40.96714° -71.12326° 30 min 0.02 0.00
207°
Apr 16, 00:51 40.96717° -71.12324° 30 min 0.02 0.00
270°
Apr 16, 00:21 40.96717° -71.12321° 30 min 0.02 0.00
138°
Apr 15, 23:51 40.96719° -71.12324° 30 min 0.02 0.00
180°
Apr 15, 23:21 40.96721° -71.12324° 30 min 0.02 0.00
Apr 15, 22:51 40.96721° -71.12324° 30 min 0.02 0.00
Apr 15, 22:21 40.96721° -71.12324° 30 min 0.02 0.00
124°
Apr 15, 21:51 40.96722° -71.12326° 30 min 0.02 0.00
180°
Apr 15, 21:21 40.96725° -71.12326° 30 min 0.02 0.00
124°
Apr 15, 20:51 40.96725° -71.12328° 30 min 0.02 0.00
Apr 15, 20:21 40.96725° -71.12328° 30 min 0.02 0.00
90°
Apr 15, 19:51 40.96725° -71.12332° 30 min 0.01 0.00
108°
Apr 15, 19:21 40.96727° -71.12337° 30 min 0.01 0.00
90°
Apr 15, 18:51 40.96727° -71.12338° 30 min 0.01 0.00
90°
Apr 15, 18:21 40.96727° -71.12341° 30 min 0.01 0.00
30°
Apr 15, 17:51 40.96724° -71.12343° 30 min 0.01 0.00
Apr 15, 17:21 40.96724° -71.12343° 30 min 0.01 0.00
138°
Apr 15, 16:51 40.96725° -71.12345° 30 min 0.01 0.01
43°
Apr 15, 16:21 40.96722° -71.12349° 30 min 0.01 0.00
Apr 15, 15:51 40.96719° -71.12349° 30 min 0.01 0.00
Apr 15, 15:21 40.96718° -71.12349° 30 min 0.01 0.00
Apr 15, 14:51 40.96717° -71.12349° 30 min 0.01 0.00
Apr 15, 14:21 40.96716° -71.12349° 30 min 0.01 0.01
345°
Apr 15, 13:51 40.96712° -71.12347° 30 min 0.01 0.00
Apr 15, 13:21 40.96711° -71.12347° 30 min 0.01 0.00
288°
Apr 15, 12:51 40.96709° -71.12343° 30 min 0.01 0.00
180°
Apr 15, 12:21 40.96712° -71.12343° 30 min 0.01 0.00
288°
Apr 15, 11:51 40.96711° -71.12338° 30 min 0.01 0.00
315°
Apr 15, 11:21 40.96709° -71.12337° 30 min 0.01 0.00
304°
Apr 15, 10:51 40.96708° -71.12334° 30 min 0.01 0.00
217°
Apr 15, 10:21 40.96711° -71.12332° 30 min 0.01 0.01
236°
Apr 15, 09:51 40.96714° -71.12326° 30 min 0.02 0.00
270°
Apr 15, 09:21 40.96714° -71.12321° 30 min 0.02 0.00
270°
Apr 15, 08:51 40.96714° -71.12319° 30 min 0.02 0.00
180°
Apr 15, 08:21 40.96716° -71.12319° 30 min 0.02 0.00
217°
Apr 15, 07:51 40.96718° -71.12317° 30 min 0.02 0.00
Apr 15, 07:21 40.96718° -71.12317° 30 min 0.02 0.00
119°
Apr 15, 06:51 40.96720° -71.12321° 30 min 0.02 0.00
180°
Apr 15, 06:21 40.96721° -71.12321° 30 min 0.02 0.00
180°
Apr 15, 05:51 40.96724° -71.12321° 30 min 0.02 0.00
138°
Apr 15, 05:21 40.96725° -71.12324° 30 min 0.02 0.00
Apr 15, 04:51 40.96725° -71.12324° 30 min 0.02 0.00
143°